Time;durP1;ratioP1;P1;durP2;ratioP2;P2;SDS_P1;SDS_P2;PMS_P1;PMS_P2;Temp;Humidity;BMP_temperature;BMP_pressure;BME280_temperature;BME280_humidity;BME280_pressure;Samples;Min_cycle;Max_cycle;Signal;HPM_P1;HPM_P2
2021/08/20 00:00:08;;;;;;;6.87;4.30;;;;;;;;;;759971;184;918350;-65
2021/08/20 00:02:34;;;;;;;14.50;4.43;;;;;;;;;;756766;184;918337;-65
2021/08/20 00:05:00;;;;;;;6.70;4.10;;;;;;;;;;756381;183;920256;-65
2021/08/20 00:07:26;;;;;;;7.43;4.43;;;;;;;;;;759084;183;918377;-65
2021/08/20 00:09:52;;;;;;;11.57;4.73;;;;;;;;;;754756;181;919574;-64
2021/08/20 00:12:17;;;;;;;5.63;4.60;;;;;;;;;;754616;184;918922;-65
2021/08/20 00:14:43;;;;;;;7.93;4.77;;;;;;;;;;754022;184;919796;-65
2021/08/20 00:17:09;;;;;;;12.40;4.73;;;;;;;;;;753159;184;917855;-66
2021/08/20 00:19:36;;;;;;;6.17;3.70;;;;;;;;;;753190;184;923039;-66
2021/08/20 00:22:01;;;;;;;7.73;3.87;;;;;;;;;;753717;184;918537;-65
2021/08/20 00:24:27;;;;;;;5.27;3.27;;;;;;;;;;759451;184;918753;-65
2021/08/20 00:26:52;;;;;;;6.87;4.10;;;;;;;;;;755021;184;918386;-65
2021/08/20 00:29:18;;;;;;;5.60;4.20;;;;;;;;;;754856;181;919129;-65
2021/08/20 00:31:44;;;;;;;4.37;3.10;;;;;;;;;;759608;184;916166;-67
2021/08/20 00:34:10;;;;;;;11.10;4.10;;;;;;;;;;755443;181;915924;-65
2021/08/20 00:36:36;;;;;;;5.12;3.03;;;;;;;;;;752595;184;1230069;-65
2021/08/20 00:39:02;;;;;;;8.80;3.62;;;;;;;;;;757027;182;916594;-64
2021/08/20 00:41:28;;;;;;;4.70;3.60;;;;;;;;;;756120;182;917230;-65
2021/08/20 00:43:54;;;;;;;4.80;3.60;;;;;;;;;;755428;183;922595;-65
2021/08/20 00:46:20;;;;;;;5.70;3.20;;;;;;;;;;755341;183;915880;-65
2021/08/20 00:48:46;;;;;;;6.93;3.60;;;;;;;;;;762171;183;919245;-65
2021/08/20 00:51:16;;;;;;;5.00;3.70;;;;;;;;;;755702;183;919670;-65
2021/08/20 00:53:42;;;;;;;6.40;3.63;;;;;;;;;;757655;184;919026;-65
2021/08/20 00:56:08;;;;;;;8.88;3.75;;;;;;;;;;760816;183;917954;-65
2021/08/20 00:58:34;;;;;;;4.70;3.60;;;;;;;;;;756580;183;919415;-65
2021/08/20 01:01:00;;;;;;;6.43;4.17;;;;;;;;;;755446;183;919633;-67
2021/08/20 01:03:25;;;;;;;6.87;3.63;;;;;;;;;;756765;182;946438;-65
2021/08/20 01:05:51;;;;;;;6.33;3.27;;;;;;;;;;759137;181;919541;-65
2021/08/20 01:08:17;;;;;;;5.93;3.80;;;;;;;;;;753856;183;919405;-65
2021/08/20 01:10:43;;;;;;;10.10;5.10;;;;;;;;;;753740;184;920257;-65
2021/08/20 01:13:09;;;;;;;6.40;4.47;;;;;;;;;;759788;182;919845;-65
2021/08/20 01:15:35;;;;;;;6.10;5.20;;;;;;;;;;757514;184;918067;-66
2021/08/20 01:18:00;;;;;;;6.50;3.93;;;;;;;;;;760941;184;620170;-65
2021/08/20 01:20:26;;;;;;;8.50;4.63;;;;;;;;;;761917;184;624086;-66
2021/08/20 01:22:52;;;;;;;8.63;4.60;;;;;;;;;;759765;180;622747;-66
2021/08/20 01:25:18;;;;;;;13.00;4.40;;;;;;;;;;759929;184;629059;-67
2021/08/20 01:27:44;;;;;;;9.67;4.20;;;;;;;;;;760619;184;629945;-65
2021/08/20 01:30:10;;;;;;;8.43;3.83;;;;;;;;;;754306;184;917481;-67
2021/08/20 01:32:36;;;;;;;8.47;4.33;;;;;;;;;;752982;181;918541;-65
2021/08/20 01:35:02;;;;;;;7.50;4.80;;;;;;;;;;753568;184;919632;-65
2021/08/20 01:37:28;;;;;;;6.70;3.93;;;;;;;;;;760014;182;917022;-65
2021/08/20 01:39:54;;;;;;;7.87;4.07;;;;;;;;;;753647;184;919527;-66
2021/08/20 01:42:19;;;;;;;14.57;4.97;;;;;;;;;;754623;181;917241;-65
2021/08/20 01:44:45;;;;;;;10.43;4.87;;;;;;;;;;759245;184;920366;-65
2021/08/20 01:47:11;;;;;;;11.90;4.60;;;;;;;;;;756523;184;920138;-64
2021/08/20 01:49:38;;;;;;;9.27;5.00;;;;;;;;;;754390;181;913835;-64
2021/08/20 01:52:04;;;;;;;8.07;4.40;;;;;;;;;;755240;182;917438;-64
2021/08/20 01:54:30;;;;;;;9.50;4.30;;;;;;;;;;757756;180;913941;-64
2021/08/20 01:56:56;;;;;;;6.70;4.30;;;;;;;;;;758896;180;914553;-64
2021/08/20 01:59:21;;;;;;;7.27;4.20;;;;;;;;;;754717;183;919797;-64
2021/08/20 02:01:47;;;;;;;8.57;3.83;;;;;;;;;;760465;182;920320;-64
2021/08/20 02:04:13;;;;;;;6.47;3.90;;;;;;;;;;755733;183;919028;-64
2021/08/20 02:06:39;;;;;;;5.20;3.90;;;;;;;;;;755599;183;1016729;-64
2021/08/20 02:09:05;;;;;;;13.30;4.97;;;;;;;;;;760445;183;915064;-64
2021/08/20 02:11:31;;;;;;;16.00;4.97;;;;;;;;;;758374;183;919560;-63
2021/08/20 02:13:56;;;;;;;4.43;3.33;;;;;;;;;;756486;183;915904;-64
2021/08/20 02:16:22;;;;;;;6.67;3.87;;;;;;;;;;759052;183;915268;-64
2021/08/20 02:18:48;;;;;;;8.60;4.30;;;;;;;;;;753683;183;920378;-64
2021/08/20 02:21:14;;;;;;;8.50;4.93;;;;;;;;;;755880;183;919475;-63
2021/08/20 02:23:40;;;;;;;5.07;4.23;;;;;;;;;;755491;181;919145;-64
2021/08/20 02:26:06;;;;;;;5.27;4.43;;;;;;;;;;760097;182;920609;-64
2021/08/20 02:28:31;;;;;;;9.43;4.30;;;;;;;;;;756290;183;919438;-64
2021/08/20 02:30:57;;;;;;;15.87;4.17;;;;;;;;;;754486;184;920297;-64
2021/08/20 02:33:23;;;;;;;5.43;4.40;;;;;;;;;;759531;184;918758;-63
2021/08/20 02:35:49;;;;;;;10.57;4.20;;;;;;;;;;754916;184;919011;-63
2021/08/20 02:38:15;;;;;;;15.20;4.97;;;;;;;;;;754708;184;919159;-64
2021/08/20 02:40:41;;;;;;;7.73;4.10;;;;;;;;;;759347;184;918704;-64
2021/08/20 02:43:06;;;;;;;6.67;3.60;;;;;;;;;;754303;184;918387;-64
2021/08/20 02:45:32;;;;;;;5.57;3.40;;;;;;;;;;752171;181;944638;-65
2021/08/20 02:47:58;;;;;;;7.70;4.57;;;;;;;;;;753509;184;918311;-63
2021/08/20 02:50:24;;;;;;;8.17;4.53;;;;;;;;;;756509;184;923357;-63
2021/08/20 02:52:50;;;;;;;6.17;3.83;;;;;;;;;;747174;184;2045558;-64
2021/08/20 02:55:16;;;;;;;9.17;5.27;;;;;;;;;;754067;184;918828;-64
2021/08/20 02:57:41;;;;;;;5.37;3.60;;;;;;;;;;759180;182;919071;-64
2021/08/20 03:00:08;;;;;;;5.40;4.10;;;;;;;;;;755635;184;919624;-64
2021/08/20 03:02:33;;;;;;;9.23;4.37;;;;;;;;;;754063;184;1020607;-64
2021/08/20 03:04:59;;;;;;;9.03;4.50;;;;;;;;;;762108;183;919412;-64
2021/08/20 03:07:25;;;;;;;5.07;3.77;;;;;;;;;;755595;183;921989;-65
2021/08/20 03:09:51;;;;;;;11.48;4.00;;;;;;;;;;755754;183;918429;-64
2021/08/20 03:12:17;;;;;;;8.13;5.63;;;;;;;;;;757992;183;919591;-64
2021/08/20 03:14:43;;;;;;;7.53;4.40;;;;;;;;;;763193;178;918758;-64
2021/08/20 03:17:09;;;;;;;7.83;5.30;;;;;;;;;;756320;184;918740;-64
2021/08/20 03:19:35;;;;;;;7.27;4.50;;;;;;;;;;754587;183;918607;-65
2021/08/20 03:22:01;;;;;;;14.73;4.63;;;;;;;;;;760171;184;923155;-64
2021/08/20 03:24:26;;;;;;;9.53;4.63;;;;;;;;;;755731;183;919216;-63
2021/08/20 03:26:52;;;;;;;8.63;4.73;;;;;;;;;;755015;184;963321;-64
2021/08/20 03:29:18;;;;;;;9.00;4.80;;;;;;;;;;759336;184;918651;-64
2021/08/20 03:31:44;;;;;;;8.50;5.40;;;;;;;;;;757475;183;919248;-64
2021/08/20 03:34:10;;;;;;;7.63;4.97;;;;;;;;;;755362;181;915707;-63
2021/08/20 03:36:36;;;;;;;8.00;4.87;;;;;;;;;;758569;183;914766;-66
2021/08/20 03:39:01;;;;;;;11.40;5.57;;;;;;;;;;758053;184;647511;-64
2021/08/20 03:41:27;;;;;;;6.93;5.20;;;;;;;;;;754047;182;924435;-63
2021/08/20 03:43:53;;;;;;;7.23;5.20;;;;;;;;;;752839;184;918992;-64
2021/08/20 03:46:19;;;;;;;14.27;5.47;;;;;;;;;;759980;184;967012;-65
2021/08/20 03:48:45;;;;;;;10.17;5.87;;;;;;;;;;754551;184;918886;-64
2021/08/20 03:51:11;;;;;;;8.60;6.03;;;;;;;;;;754083;184;919513;-64
2021/08/20 03:53:36;;;;;;;8.53;6.30;;;;;;;;;;758686;184;920063;-64
2021/08/20 03:56:02;;;;;;;8.40;5.87;;;;;;;;;;754722;181;919255;-64
2021/08/20 03:58:28;;;;;;;10.00;5.30;;;;;;;;;;753918;184;919989;-63
2021/08/20 04:00:54;;;;;;;9.43;5.90;;;;;;;;;;758956;184;918982;-65
2021/08/20 04:03:20;;;;;;;8.53;6.20;;;;;;;;;;754103;184;927373;-65
2021/08/20 04:05:46;;;;;;;16.80;5.27;;;;;;;;;;754468;181;918811;-63
2021/08/20 04:08:12;;;;;;;8.10;5.40;;;;;;;;;;754617;184;919581;-63
2021/08/20 04:10:37;;;;;;;10.18;6.20;;;;;;;;;;753656;184;920122;-64
2021/08/20 04:13:03;;;;;;;9.70;5.60;;;;;;;;;;753269;184;919660;-64
2021/08/20 04:15:29;;;;;;;12.45;6.78;;;;;;;;;;754376;183;919094;-64
2021/08/20 04:17:55;;;;;;;9.13;5.80;;;;;;;;;;761387;183;918459;-63
2021/08/20 04:20:21;;;;;;;9.43;6.30;;;;;;;;;;755945;184;919524;-63
2021/08/20 04:22:47;;;;;;;17.03;7.77;;;;;;;;;;755095;184;918310;-64
2021/08/20 04:25:12;;;;;;;12.23;7.43;;;;;;;;;;759873;183;918356;-63
2021/08/20 04:27:38;;;;;;;9.87;7.40;;;;;;;;;;754692;183;1019061;-64
2021/08/20 04:30:04;;;;;;;11.10;7.43;;;;;;;;;;755939;183;921600;-64
2021/08/20 04:32:30;;;;;;;12.80;7.33;;;;;;;;;;761626;183;919514;-64
2021/08/20 04:34:56;;;;;;;12.23;8.70;;;;;;;;;;753986;181;918155;-63
2021/08/20 04:37:23;;;;;;;11.30;7.67;;;;;;;;;;752821;183;919313;-64
2021/08/20 04:39:48;;;;;;;12.97;9.47;;;;;;;;;;752250;184;1004214;-64
2021/08/20 04:42:14;;;;;;;13.13;8.07;;;;;;;;;;759472;183;919689;-64
2021/08/20 04:44:39;;;;;;;11.53;8.20;;;;;;;;;;754940;184;919336;-64
2021/08/20 04:47:05;;;;;;;18.92;8.18;;;;;;;;;;753287;184;919133;-64
2021/08/20 04:49:31;;;;;;;15.43;8.63;;;;;;;;;;760312;181;918067;-64
2021/08/20 04:51:57;;;;;;;16.20;8.33;;;;;;;;;;754693;184;1021522;-64
2021/08/20 04:54:23;;;;;;;12.40;7.83;;;;;;;;;;742596;184;918899;-64
2021/08/20 04:56:50;;;;;;;10.83;8.13;;;;;;;;;;758743;184;918697;-64
2021/08/20 04:59:14;;;;;;;13.80;9.60;;;;;;;;;;753298;184;918187;-64
2021/08/20 05:01:40;;;;;;;14.40;8.40;;;;;;;;;;753980;184;918791;-64
2021/08/20 05:04:06;;;;;;;10.90;8.70;;;;;;;;;;754185;184;919554;-63
2021/08/20 05:06:32;;;;;;;13.70;8.80;;;;;;;;;;753085;184;920709;-64
2021/08/20 05:08:58;;;;;;;13.70;8.67;;;;;;;;;;753662;184;919634;-64
2021/08/20 05:11:24;;;;;;;14.40;9.47;;;;;;;;;;753161;181;915859;-65
2021/08/20 05:13:50;;;;;;;14.53;9.80;;;;;;;;;;759619;184;913021;-64
2021/08/20 05:16:16;;;;;;;13.60;10.00;;;;;;;;;;753697;184;967528;-64
2021/08/20 05:18:42;;;;;;;12.80;7.50;;;;;;;;;;754346;184;919349;-64
2021/08/20 05:21:08;;;;;;;14.13;9.17;;;;;;;;;;760653;184;918675;-64
2021/08/20 05:23:33;;;;;;;15.43;10.07;;;;;;;;;;753592;183;919519;-64
2021/08/20 05:25:59;;;;;;;10.73;7.65;;;;;;;;;;755626;183;920042;-64
2021/08/20 05:28:26;;;;;;;15.50;9.47;;;;;;;;;;759303;183;945115;-63
2021/08/20 05:30:51;;;;;;;24.67;9.43;;;;;;;;;;756909;183;918505;-64
2021/08/20 05:33:17;;;;;;;14.00;8.83;;;;;;;;;;753982;183;921423;-64
2021/08/20 05:35:46;;;;;;;14.70;9.37;;;;;;;;;;754985;183;919588;-64
2021/08/20 05:38:09;;;;;;;12.30;8.40;;;;;;;;;;760436;183;919730;-64
2021/08/20 05:40:35;;;;;;;17.17;8.35;;;;;;;;;;755727;183;918709;-64
2021/08/20 05:43:03;;;;;;;14.63;10.20;;;;;;;;;;755625;183;918928;-64
2021/08/20 05:45:26;;;;;;;14.33;10.90;;;;;;;;;;759242;182;915814;-64
2021/08/20 05:47:52;;;;;;;13.03;9.43;;;;;;;;;;754783;181;919659;-64
2021/08/20 05:50:18;;;;;;;12.97;9.57;;;;;;;;;;753266;182;1020748;-64
2021/08/20 05:52:44;;;;;;;12.30;8.60;;;;;;;;;;757936;183;1126908;-64
2021/08/20 05:55:12;;;;;;;15.47;9.50;;;;;;;;;;754105;183;919026;-64
2021/08/20 05:57:37;;;;;;;13.33;10.07;;;;;;;;;;756346;183;919389;-66
2021/08/20 06:00:03;;;;;;;12.50;9.30;;;;;;;;;;753644;181;919507;-64
2021/08/20 06:02:29;;;;;;;12.10;8.90;;;;;;;;;;761440;183;919448;-64
2021/08/20 06:04:55;;;;;;;14.20;9.83;;;;;;;;;;755299;184;919365;-66
2021/08/20 06:07:21;;;;;;;13.97;9.07;;;;;;;;;;758514;181;918480;-64
2021/08/20 06:09:47;;;;;;;11.73;8.73;;;;;;;;;;759760;183;918945;-64
2021/08/20 06:12:14;;;;;;;12.07;9.00;;;;;;;;;;754858;184;919428;-64
2021/08/20 06:14:39;;;;;;;11.10;8.50;;;;;;;;;;753583;184;918784;-65
2021/08/20 06:17:05;;;;;;;13.43;9.53;;;;;;;;;;762149;184;627370;-64
2021/08/20 06:19:31;;;;;;;12.52;9.57;;;;;;;;;;755218;184;919753;-64
2021/08/20 06:21:58;;;;;;;11.53;7.63;;;;;;;;;;753313;184;921860;-64
2021/08/20 06:24:23;;;;;;;10.87;9.03;;;;;;;;;;753507;184;919639;-65
2021/08/20 06:26:49;;;;;;;15.53;9.17;;;;;;;;;;759412;184;918596;-64
2021/08/20 06:29:16;;;;;;;11.17;9.30;;;;;;;;;;754086;184;918845;-64
2021/08/20 06:31:41;;;;;;;13.23;7.73;;;;;;;;;;755133;184;919550;-64
2021/08/20 06:34:06;;;;;;;8.77;7.70;;;;;;;;;;758410;182;915836;-65
2021/08/20 06:36:32;;;;;;;10.00;7.10;;;;;;;;;;754243;183;919525;-65
2021/08/20 06:38:58;;;;;;;10.10;7.87;;;;;;;;;;754516;182;919017;-64
2021/08/20 06:41:24;;;;;;;9.43;7.80;;;;;;;;;;759987;183;917190;-65
2021/08/20 06:43:50;;;;;;;8.90;7.00;;;;;;;;;;757508;183;919301;-65
2021/08/20 06:46:16;;;;;;;10.53;8.10;;;;;;;;;;753651;183;918876;-66
2021/08/20 06:48:41;;;;;;;10.07;7.17;;;;;;;;;;755652;183;918768;-65
2021/08/20 06:51:07;;;;;;;7.97;6.23;;;;;;;;;;763962;183;617809;-67
2021/08/20 06:53:34;;;;;;;11.67;7.20;;;;;;;;;;759709;183;621000;-67
2021/08/20 06:55:59;;;;;;;8.67;6.53;;;;;;;;;;757410;183;820417;-65
2021/08/20 06:58:25;;;;;;;11.93;7.10;;;;;;;;;;762327;183;812685;-65
2021/08/20 07:00:51;;;;;;;10.03;6.50;;;;;;;;;;755986;181;919539;-65
2021/08/20 07:03:16;;;;;;;9.55;7.15;;;;;;;;;;756980;183;915180;-65
2021/08/20 07:05:42;;;;;;;8.37;6.03;;;;;;;;;;764757;183;621070;-65
2021/08/20 07:08:08;;;;;;;11.10;7.70;;;;;;;;;;760448;184;629850;-66
2021/08/20 07:10:34;;;;;;;15.97;8.00;;;;;;;;;;759582;183;623208;-65
2021/08/20 07:13:00;;;;;;;7.20;6.47;;;;;;;;;;762606;183;620424;-66
2021/08/20 07:15:26;;;;;;;8.63;6.20;;;;;;;;;;758439;184;635465;-65
2021/08/20 07:17:51;;;;;;;9.37;7.50;;;;;;;;;;755920;182;918157;-65
2021/08/20 07:20:17;;;;;;;8.87;6.63;;;;;;;;;;753128;184;920967;-65
2021/08/20 07:22:43;;;;;;;7.97;7.13;;;;;;;;;;759500;181;918321;-65
2021/08/20 07:25:09;;;;;;;7.93;6.73;;;;;;;;;;753142;181;919114;-65
2021/08/20 07:27:35;;;;;;;8.17;6.47;;;;;;;;;;754485;184;918232;-65
2021/08/20 07:30:01;;;;;;;9.70;6.90;;;;;;;;;;759049;184;918542;-65
2021/08/20 07:32:27;;;;;;;8.77;6.83;;;;;;;;;;754841;184;919864;-65
2021/08/20 07:34:53;;;;;;;10.30;6.97;;;;;;;;;;755683;184;919043;-65
2021/08/20 07:37:18;;;;;;;11.10;7.40;;;;;;;;;;758317;182;919706;-66
2021/08/20 07:39:44;;;;;;;11.30;9.37;;;;;;;;;;753213;184;922964;-67
2021/08/20 07:42:10;;;;;;;14.50;10.03;;;;;;;;;;753647;184;918756;-66
2021/08/20 07:44:36;;;;;;;14.97;11.00;;;;;;;;;;752698;184;918703;-65
2021/08/20 07:47:02;;;;;;;13.80;9.30;;;;;;;;;;761751;182;920359;-65
2021/08/20 07:49:29;;;;;;;10.23;8.57;;;;;;;;;;752897;182;918325;-65
2021/08/20 07:51:55;;;;;;;11.25;8.57;;;;;;;;;;756369;183;918146;-65
2021/08/20 07:54:21;;;;;;;13.40;8.00;;;;;;;;;;761796;182;926645;-65
2021/08/20 07:56:47;;;;;;;12.57;9.70;;;;;;;;;;756131;184;919917;-66
2021/08/20 07:59:13;;;;;;;12.60;10.43;;;;;;;;;;754969;183;918692;-66
2021/08/20 08:01:39;;;;;;;15.57;11.10;;;;;;;;;;760480;183;919296;-65
2021/08/20 08:04:04;;;;;;;14.10;10.65;;;;;;;;;;755482;183;918567;-66
2021/08/20 08:06:30;;;;;;;13.30;9.90;;;;;;;;;;755589;183;914328;-66
2021/08/20 08:08:56;;;;;;;18.60;11.50;;;;;;;;;;754939;183;920776;-65
2021/08/20 08:11:22;;;;;;;12.07;10.13;;;;;;;;;;757036;183;922292;-66
2021/08/20 08:13:48;;;;;;;12.40;10.30;;;;;;;;;;752809;183;1099405;-65
2021/08/20 08:16:14;;;;;;;10.90;9.20;;;;;;;;;;757804;183;920627;-68
2021/08/20 08:18:39;;;;;;;11.00;8.90;;;;;;;;;;764116;183;637437;-66
2021/08/20 08:21:05;;;;;;;15.40;12.80;;;;;;;;;;757907;183;918552;-66
2021/08/20 08:23:31;;;;;;;16.40;11.77;;;;;;;;;;754965;183;928670;-66
2021/08/20 08:25:57;;;;;;;12.83;9.40;;;;;;;;;;759428;184;920051;-66
2021/08/20 08:28:23;;;;;;;12.87;8.50;;;;;;;;;;755932;184;918364;-66
2021/08/20 08:30:49;;;;;;;14.60;9.87;;;;;;;;;;760614;184;618681;-66
2021/08/20 08:33:15;;;;;;;8.90;6.43;;;;;;;;;;762029;184;620020;-66
2021/08/20 08:35:41;;;;;;;12.17;6.00;;;;;;;;;;758480;184;616065;-66
2021/08/20 08:38:08;;;;;;;9.73;5.55;;;;;;;;;;756984;184;919164;-66
2021/08/20 08:40:33;;;;;;;7.87;5.90;;;;;;;;;;753073;184;941469;-66
2021/08/20 08:42:59;;;;;;;8.65;6.00;;;;;;;;;;760233;184;906049;-66
2021/08/20 08:45:25;;;;;;;7.87;6.13;;;;;;;;;;755435;184;920110;-66
2021/08/20 08:47:52;;;;;;;8.70;5.50;;;;;;;;;;755019;184;920662;-67
2021/08/20 08:50:18;;;;;;;14.80;5.23;;;;;;;;;;754640;181;1841427;-66
2021/08/20 08:52:43;;;;;;;5.97;4.70;;;;;;;;;;755711;184;917767;-67
2021/08/20 08:55:10;;;;;;;8.20;5.80;;;;;;;;;;753707;184;920496;-67
2021/08/20 08:57:36;;;;;;;10.85;5.53;;;;;;;;;;753276;184;921957;-66
2021/08/20 09:00:02;;;;;;;7.87;5.57;;;;;;;;;;753627;184;919356;-66
2021/08/20 09:02:27;;;;;;;8.10;4.50;;;;;;;;;;755895;183;918279;-66
2021/08/20 09:04:53;;;;;;;8.43;5.50;;;;;;;;;;754625;182;920099;-66
2021/08/20 09:07:19;;;;;;;6.20;5.27;;;;;;;;;;761569;181;920454;-66
2021/08/20 09:09:45;;;;;;;7.15;4.82;;;;;;;;;;757247;184;919798;-66
2021/08/20 09:12:11;;;;;;;11.10;5.33;;;;;;;;;;753983;181;917501;-66
2021/08/20 09:14:37;;;;;;;6.20;5.00;;;;;;;;;;760265;181;915157;-67
2021/08/20 09:17:02;;;;;;;7.00;4.67;;;;;;;;;;756102;181;917313;-66
2021/08/20 09:19:28;;;;;;;7.60;5.93;;;;;;;;;;755131;183;914292;-66
2021/08/20 09:21:56;;;;;;;7.47;5.50;;;;;;;;;;760167;182;913660;-67
2021/08/20 09:24:26;;;;;;;8.07;5.00;;;;;;;;;;754388;180;914822;-67
2021/08/20 09:26:52;;;;;;;6.30;5.00;;;;;;;;;;753407;181;915948;-67
2021/08/20 09:29:19;;;;;;;6.43;4.27;;;;;;;;;;754472;183;924677;-67
2021/08/20 09:31:48;;;;;;;5.37;3.93;;;;;;;;;;759434;183;913148;-67
2021/08/20 09:34:14;;;;;;;7.40;4.47;;;;;;;;;;754649;184;919607;-67
2021/08/20 09:36:40;;;;;;;9.10;5.03;;;;;;;;;;756603;184;919552;-67
2021/08/20 09:39:06;;;;;;;8.20;4.37;;;;;;;;;;753843;184;968940;-67
2021/08/20 09:41:35;;;;;;;7.70;4.57;;;;;;;;;;752654;184;919222;-67
2021/08/20 09:44:01;;;;;;;9.03;4.90;;;;;;;;;;752294;184;919575;-67
2021/08/20 09:46:24;;;;;;;6.35;4.25;;;;;;;;;;752668;181;918792;-67
2021/08/20 09:48:53;;;;;;;14.53;5.90;;;;;;;;;;759393;184;917962;-68
2021/08/20 09:51:24;;;;;;;7.93;4.20;;;;;;;;;;754126;184;918721;-67
2021/08/20 09:53:56;;;;;;;5.47;4.27;;;;;;;;;;754694;184;920111;-67
2021/08/20 09:56:22;;;;;;;8.57;4.20;;;;;;;;;;754400;184;947274;-67
2021/08/20 09:58:48;;;;;;;12.60;5.23;;;;;;;;;;762039;181;633250;-67
2021/08/20 10:01:14;;;;;;;9.63;4.87;;;;;;;;;;756800;184;916830;-69
2021/08/20 10:03:39;;;;;;;6.93;4.50;;;;;;;;;;759333;184;630442;-67
2021/08/20 10:06:05;;;;;;;5.00;4.27;;;;;;;;;;762753;183;634976;-67
2021/08/20 10:08:31;;;;;;;11.88;4.78;;;;;;;;;;756246;184;865015;-67
2021/08/20 10:10:57;;;;;;;8.20;4.13;;;;;;;;;;752816;183;920428;-67
2021/08/20 10:13:23;;;;;;;5.37;4.27;;;;;;;;;;755766;180;916997;-69
2021/08/20 10:15:49;;;;;;;5.80;4.18;;;;;;;;;;761423;183;918178;-68
2021/08/20 10:18:16;;;;;;;6.40;4.30;;;;;;;;;;756930;182;918683;-67
2021/08/20 10:20:42;;;;;;;5.13;3.80;;;;;;;;;;757219;184;918695;-66
2021/08/20 10:23:11;;;;;;;7.33;4.90;;;;;;;;;;764752;183;618910;-67
2021/08/20 10:25:37;;;;;;;6.63;4.20;;;;;;;;;;761074;183;632693;-68
2021/08/20 10:28:02;;;;;;;5.60;3.70;;;;;;;;;;760340;182;619560;-67
2021/08/20 10:30:28;;;;;;;4.37;3.47;;;;;;;;;;758344;182;632532;-68
2021/08/20 10:33:00;;;;;;;7.23;4.30;;;;;;;;;;758191;180;919105;-68
2021/08/20 10:35:32;;;;;;;6.33;3.47;;;;;;;;;;755212;182;1038776;-67
2021/08/20 10:37:58;;;;;;;8.13;3.50;;;;;;;;;;753788;183;918850;-67
2021/08/20 10:40:23;;;;;;;5.97;3.70;;;;;;;;;;753778;183;918652;-67
2021/08/20 10:42:49;;;;;;;5.07;3.90;;;;;;;;;;753184;181;919385;-67
2021/08/20 10:45:15;;;;;;;4.33;3.23;;;;;;;;;;754121;183;919451;-67
2021/08/20 10:47:42;;;;;;;3.20;2.70;;;;;;;;;;757627;181;919535;-67
2021/08/20 10:50:10;;;;;;;5.60;3.40;;;;;;;;;;760092;183;915410;-67
2021/08/20 10:52:36;;;;;;;4.87;3.47;;;;;;;;;;754557;184;919163;-67
2021/08/20 10:55:11;;;;;;;4.20;3.10;;;;;;;;;;755945;184;917748;-69
2021/08/20 10:57:51;;;;;;;5.87;3.47;;;;;;;;;;755927;184;919245;-67
2021/08/20 11:00:26;;;;;;;6.20;3.33;;;;;;;;;;754100;181;919375;-69
2021/08/20 11:02:54;;;;;;;4.07;2.90;;;;;;;;;;758276;184;918013;-69
2021/08/20 11:05:21;;;;;;;5.30;3.03;;;;;;;;;;754414;184;918812;-69
2021/08/20 11:07:46;;;;;;;4.33;3.20;;;;;;;;;;752981;184;918379;-69
2021/08/20 11:10:26;;;;;;;6.50;2.63;;;;;;;;;;754659;181;906968;-70
2021/08/20 11:13:00;;;;;;;8.73;3.07;;;;;;;;;;753481;184;916907;-68
2021/08/20 11:15:38;;;;;;;4.20;2.90;;;;;;;;;;758625;184;919203;-69
2021/08/20 11:18:04;;;;;;;5.70;3.17;;;;;;;;;;756543;184;916475;-68
2021/08/20 11:20:35;;;;;;;3.93;3.20;;;;;;;;;;752320;184;920684;-69
2021/08/20 11:23:20;;;;;;;4.67;3.03;;;;;;;;;;752848;181;921045;-69
2021/08/20 11:25:50;;;;;;;4.63;3.17;;;;;;;;;;756331;184;922760;-69
2021/08/20 11:28:21;;;;;;;7.60;2.65;;;;;;;;;;755668;183;915664;-67
2021/08/20 11:30:52;;;;;;;4.90;2.70;;;;;;;;;;763629;183;633310;-68
2021/08/20 11:33:19;;;;;;;6.57;2.20;;;;;;;;;;758572;183;909478;-69
2021/08/20 11:35:46;;;;;;;4.80;2.60;;;;;;;;;;754467;183;918145;-68
2021/08/20 11:38:11;;;;;;;2.97;2.30;;;;;;;;;;757342;181;909656;-69
2021/08/20 11:40:43;;;;;;;3.47;2.37;;;;;;;;;;763026;181;614676;-68
2021/08/20 11:43:09;;;;;;;3.87;2.73;;;;;;;;;;755034;182;917752;-71
2021/08/20 11:45:35;;;;;;;4.53;2.70;;;;;;;;;;756885;182;929333;-70
2021/08/20 11:48:01;;;;;;;3.00;2.20;;;;;;;;;;752201;184;1366721;-69
2021/08/20 11:50:27;;;;;;;3.33;1.90;;;;;;;;;;761078;184;914311;-69
2021/08/20 11:52:52;;;;;;;3.33;2.10;;;;;;;;;;756542;183;983384;-70
2021/08/20 11:55:18;;;;;;;3.57;2.10;;;;;;;;;;755343;184;917884;-70
2021/08/20 11:57:44;;;;;;;3.07;1.77;;;;;;;;;;759050;183;920056;-69
2021/08/20 12:00:10;;;;;;;3.30;2.00;;;;;;;;;;753188;183;917731;-69
2021/08/20 12:02:36;;;;;;;3.90;1.90;;;;;;;;;;752511;184;919293;-69
2021/08/20 12:05:08;;;;;;;3.13;2.13;;;;;;;;;;758722;184;918156;-69
2021/08/20 12:07:34;;;;;;;4.00;2.60;;;;;;;;;;759078;184;914325;-68
2021/08/20 12:10:00;;;;;;;3.23;2.00;;;;;;;;;;754017;182;915919;-70
2021/08/20 12:12:25;;;;;;;3.70;2.50;;;;;;;;;;753529;184;915394;-70
2021/08/20 12:14:51;;;;;;;5.20;2.77;;;;;;;;;;759991;184;915886;-69
2021/08/20 12:17:17;;;;;;;3.47;2.43;;;;;;;;;;755715;184;919061;-70
2021/08/20 12:19:43;;;;;;;9.83;2.70;;;;;;;;;;758123;184;639235;-68
2021/08/20 12:22:09;;;;;;;2.67;2.30;;;;;;;;;;760861;184;893505;-69
2021/08/20 12:24:35;;;;;;;6.60;2.10;;;;;;;;;;757357;184;915038;-70
2021/08/20 12:27:06;;;;;;;4.13;3.00;;;;;;;;;;755536;184;919339;-70
2021/08/20 12:29:32;;;;;;;4.40;2.70;;;;;;;;;;753496;184;919581;-70
2021/08/20 12:31:58;;;;;;;3.70;2.73;;;;;;;;;;758243;184;918981;-71
2021/08/20 12:34:26;;;;;;;3.40;2.23;;;;;;;;;;754788;184;920049;-71
2021/08/20 12:36:52;;;;;;;7.93;3.23;;;;;;;;;;759866;182;629793;-68
2021/08/20 12:39:18;;;;;;;5.43;2.83;;;;;;;;;;761537;183;918570;-70
2021/08/20 12:41:44;;;;;;;5.33;2.67;;;;;;;;;;760829;184;632689;-70
2021/08/20 12:44:10;;;;;;;4.40;2.70;;;;;;;;;;760688;183;632675;-70
2021/08/20 12:46:36;;;;;;;2.60;1.90;;;;;;;;;;759222;183;633052;-69
2021/08/20 12:49:02;;;;;;;4.40;3.07;;;;;;;;;;755027;182;918868;-69
2021/08/20 12:51:27;;;;;;;4.70;2.87;;;;;;;;;;755184;183;919976;-69
2021/08/20 12:53:59;;;;;;;4.90;2.20;;;;;;;;;;753766;183;918895;-70
2021/08/20 12:56:25;;;;;;;3.00;2.00;;;;;;;;;;759374;183;918342;-70
2021/08/20 12:58:51;;;;;;;5.17;2.80;;;;;;;;;;752607;183;919349;-70
2021/08/20 13:01:17;;;;;;;6.40;3.50;;;;;;;;;;754635;183;931452;-71
2021/08/20 13:03:43;;;;;;;4.70;2.83;;;;;;;;;;755346;183;918688;-68
2021/08/20 13:06:08;;;;;;;4.23;2.50;;;;;;;;;;754878;184;919751;-70
2021/08/20 13:08:34;;;;;;;5.17;2.90;;;;;;;;;;753356;183;921407;-73
2021/08/20 13:11:00;;;;;;;4.33;2.67;;;;;;;;;;753489;183;946613;-71
2021/08/20 13:13:26;;;;;;;4.63;2.40;;;;;;;;;;759802;183;918861;-71
2021/08/20 13:15:52;;;;;;;4.47;2.50;;;;;;;;;;754758;182;919635;-72
2021/08/20 13:18:18;;;;;;;4.10;2.70;;;;;;;;;;754373;182;918961;-71
2021/08/20 13:20:46;;;;;;;7.77;2.77;;;;;;;;;;759785;184;918726;-71
2021/08/20 13:23:11;;;;;;;3.07;2.20;;;;;;;;;;756382;184;918915;-71
2021/08/20 13:25:37;;;;;;;4.37;2.60;;;;;;;;;;753532;184;918693;-72
2021/08/20 13:28:03;;;;;;;5.23;2.70;;;;;;;;;;753840;184;919153;-70
2021/08/20 13:30:29;;;;;;;5.70;2.40;;;;;;;;;;756746;184;918934;-71
2021/08/20 13:32:55;;;;;;;4.27;2.60;;;;;;;;;;753691;181;918776;-71
2021/08/20 13:35:21;;;;;;;4.47;3.10;;;;;;;;;;753639;182;919182;-72
2021/08/20 13:37:49;;;;;;;4.87;2.70;;;;;;;;;;758597;184;918896;-72
2021/08/20 13:40:13;;;;;;;7.00;2.87;;;;;;;;;;757159;184;815978;-71
2021/08/20 13:42:38;;;;;;;4.35;2.67;;;;;;;;;;756154;184;919676;-71
2021/08/20 13:45:05;;;;;;;3.83;2.57;;;;;;;;;;761734;181;917469;-70
2021/08/20 13:47:30;;;;;;;5.83;2.87;;;;;;;;;;754309;184;919607;-73
2021/08/20 13:49:56;;;;;;;4.47;2.40;;;;;;;;;;758495;181;920303;-72
2021/08/20 13:52:23;;;;;;;3.93;2.80;;;;;;;;;;759176;183;918578;-70
2021/08/20 13:54:49;;;;;;;5.33;3.13;;;;;;;;;;755861;184;918905;-71
2021/08/20 13:57:15;;;;;;;4.80;3.40;;;;;;;;;;753619;184;919024;-71
2021/08/20 13:59:41;;;;;;;5.40;3.33;;;;;;;;;;754286;181;918394;-71
2021/08/20 14:02:06;;;;;;;4.57;3.20;;;;;;;;;;760447;182;918823;-71
2021/08/20 14:04:32;;;;;;;4.50;3.10;;;;;;;;;;755761;183;919622;-75
2021/08/20 14:06:58;;;;;;;4.63;2.63;;;;;;;;;;754409;183;918365;-71
2021/08/20 14:09:24;;;;;;;5.73;3.00;;;;;;;;;;758061;180;1135506;-70
2021/08/20 14:11:50;;;;;;;4.13;2.70;;;;;;;;;;755456;184;918714;-72
2021/08/20 14:14:16;;;;;;;4.30;2.43;;;;;;;;;;755162;184;919690;-71
2021/08/20 14:16:41;;;;;;;4.50;2.40;;;;;;;;;;759421;183;918894;-72